Time;durP1;ratioP1;P1;durP2;ratioP2;P2;SDS_P1;SDS_P2;PMS_P1;PMS_P2;Temp;Humidity;BMP_temperature;BMP_pressure;BME280_temperature;BME280_humidity;BME280_pressure;Samples;Min_cycle;Max_cycle;Signal;HPM_P1;HPM_P2
2023/07/06 00:01:39;;;;;;;28.80;15.07;;;;;;;;;;6217831;28;20050;-61
2023/07/06 00:04:39;;;;;;;29.98;14.80;;;;;;;;;;6216360;28;20050;-60
2023/07/06 00:07:40;;;;;;;32.47;15.53;;;;;;;;;;6217727;28;20493;-61
2023/07/06 00:10:45;;;;;;;38.53;14.00;;;;;;;;;;6217897;28;20038;-61
2023/07/06 00:13:46;;;;;;;27.00;13.43;;;;;;;;;;6216446;28;20054;-61
2023/07/06 00:16:47;;;;;;;24.88;12.77;;;;;;;;;;6217783;28;20050;-61
2023/07/06 00:19:48;;;;;;;30.33;14.65;;;;;;;;;;6217776;28;20137;-61
2023/07/06 00:22:48;;;;;;;25.67;13.83;;;;;;;;;;6216942;28;20409;-61
2023/07/06 00:25:50;;;;;;;26.97;14.27;;;;;;;;;;6216988;28;20145;-60
2023/07/06 00:28:51;;;;;;;24.38;14.27;;;;;;;;;;6217520;28;20050;-60
2023/07/06 00:32:03;;;;;;;28.00;14.13;;;;;;;;;;6217819;28;20128;-61
2023/07/06 00:35:04;;;;;;;28.58;13.68;;;;;;;;;;6215747;28;20050;-61
2023/07/06 00:38:11;;;;;;;26.65;13.45;;;;;;;;;;6217697;28;20196;-61
2023/07/06 00:41:12;;;;;;;26.52;13.35;;;;;;;;;;6217391;28;20508;-61
2023/07/06 00:45:04;;;;;;;33.13;14.80;;;;;;;;;;6216589;28;20141;-61
2023/07/06 00:48:22;;;;;;;26.58;12.93;;;;;;;;;;6193102;28;20413;-60
2023/07/06 00:51:28;;;;;;;26.77;13.55;;;;;;;;;;6220128;28;20045;-60
2023/07/06 00:54:29;;;;;;;24.63;13.20;;;;;;;;;;6221796;28;20053;-60
2023/07/06 00:57:32;;;;;;;29.23;14.65;;;;;;;;;;6222022;28;20057;-61
2023/07/06 01:00:33;;;;;;;31.90;14.75;;;;;;;;;;6220395;28;20049;-60
2023/07/06 01:03:43;;;;;;;31.20;14.60;;;;;;;;;;6221882;28;20060;-61
2023/07/06 01:06:48;;;;;;;34.33;14.77;;;;;;;;;;6221587;28;20053;-61
2023/07/06 01:09:49;;;;;;;33.78;15.35;;;;;;;;;;6220173;28;20064;-60
2023/07/06 01:12:50;;;;;;;31.75;14.52;;;;;;;;;;6221428;28;20050;-60
2023/07/06 01:16:03;;;;;;;30.37;14.77;;;;;;;;;;6221451;28;20141;-61
2023/07/06 01:19:39;;;;;;;31.52;14.45;;;;;;;;;;6221027;28;20131;-61
2023/07/06 01:22:53;;;;;;;31.58;14.65;;;;;;;;;;6220179;28;20054;-61
2023/07/06 01:26:25;;;;;;;31.67;15.25;;;;;;;;;;6220794;28;20457;-61
2023/07/06 01:29:29;;;;;;;32.33;13.95;;;;;;;;;;6221120;28;20172;-60
2023/07/06 01:32:34;;;;;;;25.92;12.95;;;;;;;;;;6221368;28;20096;-60
2023/07/06 01:36:03;;;;;;;27.35;12.75;;;;;;;;;;6219145;28;20054;-60
2023/07/06 01:39:14;;;;;;;28.17;12.80;;;;;;;;;;6219784;28;20065;-61
2023/07/06 01:42:26;;;;;;;26.38;12.68;;;;;;;;;;6221275;28;20050;-61
2023/07/06 01:45:29;;;;;;;27.10;12.15;;;;;;;;;;6221154;28;20077;-61
2023/07/06 01:48:29;;;;;;;32.45;13.93;;;;;;;;;;6219096;28;20057;-61
2023/07/06 01:51:40;;;;;;;28.63;12.33;;;;;;;;;;6221091;28;20057;-61
2023/07/06 01:55:00;;;;;;;29.95;13.02;;;;;;;;;;6219413;28;20080;-61
2023/07/06 01:58:26;;;;;;;29.77;12.13;;;;;;;;;;6220385;28;20054;-62
2023/07/06 02:01:41;;;;;;;32.28;12.60;;;;;;;;;;6218367;28;20188;-60
2023/07/06 02:04:43;;;;;;;32.58;12.88;;;;;;;;;;6220260;28;20046;-60
2023/07/06 02:07:44;;;;;;;32.35;13.13;;;;;;;;;;6220171;28;20100;-61
2023/07/06 02:10:44;;;;;;;32.47;13.10;;;;;;;;;;6219821;28;20080;-61
2023/07/06 02:13:45;;;;;;;32.27;13.93;;;;;;;;;;6219716;28;20485;-61
2023/07/06 02:16:46;;;;;;;30.97;13.10;;;;;;;;;;6220112;28;20069;-60
2023/07/06 02:19:46;;;;;;;35.77;13.00;;;;;;;;;;6220576;28;20056;-60
2023/07/06 02:22:47;;;;;;;32.47;12.30;;;;;;;;;;6218524;28;20058;-61
2023/07/06 02:25:48;;;;;;;26.20;11.90;;;;;;;;;;6219717;28;20440;-60
2023/07/06 02:28:48;;;;;;;29.30;13.37;;;;;;;;;;6219832;28;20056;-61
2023/07/06 02:31:49;;;;;;;27.83;11.53;;;;;;;;;;6218415;28;20046;-60
2023/07/06 02:34:50;;;;;;;31.20;12.87;;;;;;;;;;6219211;28;20049;-58
2023/07/06 02:37:51;;;;;;;28.53;12.37;;;;;;;;;;6219727;28;20542;-61
2023/07/06 02:40:52;;;;;;;30.03;12.43;;;;;;;;;;6218567;28;20046;-61
2023/07/06 02:43:52;;;;;;;23.63;12.23;;;;;;;;;;6218742;28;20057;-62
2023/07/06 02:46:54;;;;;;;29.37;13.03;;;;;;;;;;6219071;28;20493;-61
2023/07/06 02:49:55;;;;;;;;;;;;;;;;;;6219865;28;20132;-61
2023/07/06 02:52:55;;;;;;;25.85;12.40;;;;;;;;;;6217795;28;19926;-61
2023/07/06 02:55:56;;;;;;;30.23;12.90;;;;;;;;;;6219260;28;20049;-60
2023/07/06 02:58:57;;;;;;;27.57;12.97;;;;;;;;;;6219280;28;20053;-61
2023/07/06 03:01:58;;;;;;;32.67;13.33;;;;;;;;;;6217679;28;20487;-60
2023/07/06 03:04:58;;;;;;;31.90;13.60;;;;;;;;;;6218939;28;20054;-61
2023/07/06 03:07:59;;;;;;;30.73;14.70;;;;;;;;;;6218965;28;20196;-60
2023/07/06 03:10:59;;;;;;;30.70;12.53;;;;;;;;;;6217974;28;20065;-61
2023/07/06 03:14:02;;;;;;;35.40;13.37;;;;;;;;;;6217749;28;20050;-61
2023/07/06 03:17:03;;;;;;;28.10;13.20;;;;;;;;;;6219278;28;20069;-61
2023/07/06 03:20:13;;;;;;;32.67;13.17;;;;;;;;;;6218608;28;20409;-61
2023/07/06 03:23:14;;;;;;;27.15;13.00;;;;;;;;;;6217187;28;20046;-61
2023/07/06 03:26:16;;;;;;;30.40;13.77;;;;;;;;;;6218503;28;20092;-61
2023/07/06 03:29:16;;;;;;;31.77;13.75;;;;;;;;;;6218386;28;20085;-61
2023/07/06 03:32:18;;;;;;;37.07;14.27;;;;;;;;;;6216912;28;20076;-61
2023/07/06 03:35:22;;;;;;;33.63;14.23;;;;;;;;;;6217837;28;20054;-60
2023/07/06 03:38:25;;;;;;;33.88;13.95;;;;;;;;;;6218327;28;20056;-61
2023/07/06 03:41:26;;;;;;;29.10;13.15;;;;;;;;;;6217162;28;20401;-61
2023/07/06 03:44:27;;;;;;;36.60;13.98;;;;;;;;;;6217319;28;20061;-61
2023/07/06 03:47:28;;;;;;;33.23;13.57;;;;;;;;;;6218050;28;20050;-60
2023/07/06 03:50:28;;;;;;;33.07;13.63;;;;;;;;;;6218374;28;20053;-60
2023/07/06 03:53:29;;;;;;;31.43;13.77;;;;;;;;;;6216613;28;20053;-61
2023/07/06 03:56:30;;;;;;;29.58;13.52;;;;;;;;;;6217793;28;20045;-60
2023/07/06 03:59:31;;;;;;;29.87;14.10;;;;;;;;;;6218070;28;20056;-61
2023/07/06 04:02:32;;;;;;;31.50;13.45;;;;;;;;;;6216543;28;20061;-61
2023/07/06 04:05:37;;;;;;;29.03;13.03;;;;;;;;;;6217757;28;20548;-61
2023/07/06 04:08:38;;;;;;;26.77;13.13;;;;;;;;;;6218233;28;20049;-61
2023/07/06 04:11:38;;;;;;;37.03;12.77;;;;;;;;;;6217167;28;20108;-61
2023/07/06 04:14:39;;;;;;;25.70;12.20;;;;;;;;;;6216725;28;20062;-60
2023/07/06 04:17:40;;;;;;;25.98;12.43;;;;;;;;;;6218117;28;20054;-61
2023/07/06 04:20:41;;;;;;;30.00;12.27;;;;;;;;;;6217796;28;20686;-61
2023/07/06 04:23:41;;;;;;;34.90;12.60;;;;;;;;;;6216070;28;20045;-60
2023/07/06 04:26:45;;;;;;;30.53;12.17;;;;;;;;;;6221380;28;20053;-61
2023/07/06 04:29:45;;;;;;;26.45;11.23;;;;;;;;;;6222536;28;20442;-61
2023/07/06 04:32:50;;;;;;;29.03;11.90;;;;;;;;;;6203899;28;20069;-61
2023/07/06 04:35:52;;;;;;;27.42;11.70;;;;;;;;;;6221801;28;20082;-61
2023/07/06 04:38:52;;;;;;;27.27;9.75;;;;;;;;;;6222460;28;20056;-60
2023/07/06 04:41:54;;;;;;;23.83;10.03;;;;;;;;;;6222171;28;20042;-60
2023/07/06 04:44:54;;;;;;;21.48;10.13;;;;;;;;;;6221231;28;20046;-61
2023/07/06 04:47:57;;;;;;;27.73;9.80;;;;;;;;;;6222413;28;20050;-61
2023/07/06 04:50:57;;;;;;;20.67;9.40;;;;;;;;;;6222067;28;20049;-61
2023/07/06 04:53:58;;;;;;;27.03;9.77;;;;;;;;;;6220570;28;20413;-61
2023/07/06 04:56:59;;;;;;;21.00;9.32;;;;;;;;;;6221928;28;20057;-61
2023/07/06 05:00:01;;;;;;;20.70;9.37;;;;;;;;;;6221909;28;20493;-61
2023/07/06 05:03:06;;;;;;;;;;;;;;;;;;6221040;28;20074;-61
2023/07/06 05:06:12;;;;;;;23.80;9.50;;;;;;;;;;6221256;28;19921;-61
2023/07/06 05:09:13;;;;;;;22.88;9.25;;;;;;;;;;6221673;28;20050;-61
2023/07/06 05:12:14;;;;;;;20.40;8.87;;;;;;;;;;6221337;28;20489;-61
2023/07/06 05:15:15;;;;;;;19.60;8.77;;;;;;;;;;6220282;28;20505;-61
2023/07/06 05:18:19;;;;;;;28.23;9.13;;;;;;;;;;6221386;28;20054;-62
2023/07/06 05:21:19;;;;;;;22.38;9.15;;;;;;;;;;6221496;28;20532;-61
2023/07/06 05:24:29;;;;;;;23.40;9.57;;;;;;;;;;6219546;28;20534;-61
2023/07/06 05:27:31;;;;;;;20.38;9.90;;;;;;;;;;6221175;28;20131;-61
2023/07/06 05:30:31;;;;;;;24.67;9.57;;;;;;;;;;6220972;28;20485;-60
2023/07/06 05:33:32;;;;;;;22.07;9.37;;;;;;;;;;6220768;28;20053;-61
2023/07/06 05:36:34;;;;;;;18.13;8.70;;;;;;;;;;6219104;28;20054;-61
2023/07/06 05:39:35;;;;;;;23.52;9.85;;;;;;;;;;6221046;28;20137;-61
2023/07/06 05:42:35;;;;;;;28.63;9.83;;;;;;;;;;6220698;28;20042;-61
2023/07/06 05:45:36;;;;;;;26.00;9.43;;;;;;;;;;6219489;28;20046;-61
2023/07/06 05:48:36;;;;;;;24.60;9.87;;;;;;;;;;6220816;28;20045;-61
2023/07/06 05:51:37;;;;;;;19.70;8.73;;;;;;;;;;6220867;28;20053;-61
2023/07/06 05:54:39;;;;;;;17.97;9.07;;;;;;;;;;6218996;28;20105;-61
2023/07/06 05:57:40;;;;;;;21.52;9.10;;;;;;;;;;6220374;28;20056;-61
2023/07/06 06:00:41;;;;;;;23.97;8.77;;;;;;;;;;6220349;28;20050;-61
2023/07/06 06:03:41;;;;;;;21.73;9.43;;;;;;;;;;6219560;28;20058;-61
2023/07/06 06:06:47;;;;;;;21.60;9.43;;;;;;;;;;6219480;28;20049;-61
2023/07/06 06:09:48;;;;;;;24.08;9.07;;;;;;;;;;6220193;28;20130;-61
2023/07/06 06:12:49;;;;;;;25.37;8.93;;;;;;;;;;6220335;28;20046;-61
2023/07/06 06:15:50;;;;;;;25.43;8.53;;;;;;;;;;6218805;28;20061;-61
2023/07/06 06:18:50;;;;;;;19.13;8.60;;;;;;;;;;6219985;28;20068;-61
2023/07/06 06:21:53;;;;;;;21.13;8.37;;;;;;;;;;6220532;28;20045;-61
2023/07/06 06:24:53;;;;;;;22.60;8.82;;;;;;;;;;6218287;28;20076;-61
2023/07/06 06:27:54;;;;;;;24.47;9.43;;;;;;;;;;6219469;28;20053;-61
2023/07/06 06:30:55;;;;;;;23.30;9.03;;;;;;;;;;6218670;28;20058;-61
2023/07/06 06:33:56;;;;;;;25.00;9.82;;;;;;;;;;6219486;28;20041;-61
2023/07/06 06:36:56;;;;;;;24.53;9.50;;;;;;;;;;6218507;28;20436;-61
2023/07/06 06:39:59;;;;;;;31.97;11.20;;;;;;;;;;6219679;28;20080;-61
2023/07/06 06:43:00;;;;;;;27.17;11.07;;;;;;;;;;6219347;28;20486;-61
2023/07/06 06:46:01;;;;;;;22.27;10.63;;;;;;;;;;6217705;28;20162;-61
2023/07/06 06:49:01;;;;;;;30.00;12.30;;;;;;;;;;6219344;28;20405;-61
2023/07/06 06:52:03;;;;;;;28.37;12.47;;;;;;;;;;6219141;28;20603;-61
2023/07/06 06:55:05;;;;;;;27.13;12.20;;;;;;;;;;6217804;28;20785;-61
2023/07/06 06:58:06;;;;;;;;;;;;;;;;;;6219565;28;20056;-61
2023/07/06 07:01:08;;;;;;;29.15;11.90;;;;;;;;;;6219201;28;20304;-61
2023/07/06 07:04:09;;;;;;;23.05;11.10;;;;;;;;;;6218327;28;20045;-61
2023/07/06 07:07:10;;;;;;;26.88;11.30;;;;;;;;;;6218400;28;20127;-61
2023/07/06 07:10:11;;;;;;;22.67;9.70;;;;;;;;;;6218975;28;20432;-61
2023/07/06 07:13:12;;;;;;;22.03;10.03;;;;;;;;;;6218749;28;20137;-61
2023/07/06 07:16:14;;;;;;;25.30;10.40;;;;;;;;;;6217280;28;20111;-61
2023/07/06 07:19:14;;;;;;;19.85;10.20;;;;;;;;;;6218668;28;20037;-61
2023/07/06 07:22:15;;;;;;;34.37;12.20;;;;;;;;;;6218874;28;20050;-61
2023/07/06 07:25:17;;;;;;;24.27;10.77;;;;;;;;;;6217142;28;20056;-61
2023/07/06 07:28:18;;;;;;;22.10;9.15;;;;;;;;;;6218599;28;20050;-61
2023/07/06 07:31:21;;;;;;;29.05;11.48;;;;;;;;;;6218323;28;20046;-61
2023/07/06 07:34:22;;;;;;;24.27;11.13;;;;;;;;;;6217488;28;20052;-61
2023/07/06 07:37:22;;;;;;;29.93;12.27;;;;;;;;;;6217370;28;20049;-61
2023/07/06 07:40:23;;;;;;;23.80;10.67;;;;;;;;;;6218526;28;20050;-61
2023/07/06 07:43:29;;;;;;;25.03;9.70;;;;;;;;;;6218107;28;20080;-61
2023/07/06 07:46:30;;;;;;;20.23;7.90;;;;;;;;;;6216559;28;20053;-61
2023/07/06 07:49:30;;;;;;;13.37;6.60;;;;;;;;;;6218589;28;20452;-61
2023/07/06 07:52:31;;;;;;;20.50;9.10;;;;;;;;;;6218002;28;20060;-61
2023/07/06 07:55:32;;;;;;;16.97;5.93;;;;;;;;;;6216499;28;20146;-61
2023/07/06 07:58:34;;;;;;;17.57;6.10;;;;;;;;;;6218237;28;20050;-62
2023/07/06 08:01:35;;;;;;;17.00;6.13;;;;;;;;;;6217266;28;20054;-61
2023/07/06 08:04:35;;;;;;;13.45;5.95;;;;;;;;;;6217326;28;20136;-61
2023/07/06 08:07:36;;;;;;;16.50;6.90;;;;;;;;;;6216796;28;20049;-61
2023/07/06 08:10:40;;;;;;;14.03;6.03;;;;;;;;;;6218086;28;20128;-61
2023/07/06 08:13:44;;;;;;;16.83;6.43;;;;;;;;;;6217911;28;20049;-62
2023/07/06 08:16:45;;;;;;;17.60;6.38;;;;;;;;;;6216293;28;20142;-61
2023/07/06 08:19:45;;;;;;;15.10;6.70;;;;;;;;;;6217820;28;20516;-61
2023/07/06 08:22:46;;;;;;;15.67;6.93;;;;;;;;;;6217955;28;20175;-61
2023/07/06 08:25:49;;;;;;;13.13;6.07;;;;;;;;;;6216504;28;20485;-61
2023/07/06 08:28:51;;;;;;;14.10;6.13;;;;;;;;;;6217298;28;20136;-61
2023/07/06 08:31:51;;;;;;;14.02;5.72;;;;;;;;;;6217667;28;20466;-61
2023/07/06 08:34:53;;;;;;;15.03;6.87;;;;;;;;;;6216865;28;20084;-61
2023/07/06 08:37:53;;;;;;;;;;;;;;;;;;6217458;28;20108;-61
2023/07/06 08:40:54;;;;;;;16.92;6.20;;;;;;;;;;6217380;28;20289;-61
2023/07/06 08:43:58;;;;;;;22.33;6.80;;;;;;;;;;6217911;28;20507;-61
2023/07/06 08:46:59;;;;;;;19.00;6.32;;;;;;;;;;6215631;28;20481;-61
2023/07/06 08:50:03;;;;;;;16.70;6.80;;;;;;;;;;6217665;28;20054;-61
2023/07/06 08:53:05;;;;;;;17.58;6.63;;;;;;;;;;6217354;28;20291;-61
2023/07/06 08:56:10;;;;;;;15.27;6.60;;;;;;;;;;6216236;28;20050;-61
2023/07/06 08:59:39;;;;;;;20.13;6.68;;;;;;;;;;6216647;28;20124;-61
2023/07/06 09:02:40;;;;;;;16.80;6.72;;;;;;;;;;6217363;28;20493;-61
2023/07/06 09:05:46;;;;;;;20.63;6.13;;;;;;;;;;6217500;28;20061;-62
2023/07/06 09:08:53;;;;;;;15.68;6.53;;;;;;;;;;6215779;28;20053;-61
2023/07/06 09:11:57;;;;;;;14.20;6.70;;;;;;;;;;6218926;28;20424;-61
2023/07/06 09:14:59;;;;;;;17.83;7.05;;;;;;;;;;6221654;28;20050;-61
2023/07/06 09:18:01;;;;;;;16.40;6.50;;;;;;;;;;6221024;28;20068;-62
2023/07/06 09:21:02;;;;;;;16.70;6.20;;;;;;;;;;6220508;28;20050;-61
2023/07/06 09:24:04;;;;;;;16.23;6.20;;;;;;;;;;6221267;28;20627;-61
2023/07/06 09:27:13;;;;;;;16.83;6.30;;;;;;;;;;6221244;28;20050;-61
2023/07/06 09:30:32;;;;;;;17.17;6.53;;;;;;;;;;6218555;28;20050;-61
2023/07/06 09:33:32;;;;;;;13.77;5.95;;;;;;;;;;6220669;28;20042;-61
2023/07/06 09:36:33;;;;;;;17.37;6.90;;;;;;;;;;6221193;28;20100;-61
2023/07/06 09:39:33;;;;;;;14.20;6.07;;;;;;;;;;6220217;28;20057;-62
2023/07/06 09:42:34;;;;;;;13.70;5.37;;;;;;;;;;6220151;28;20084;-61
2023/07/06 09:45:35;;;;;;;15.70;5.73;;;;;;;;;;6220954;28;20437;-61
2023/07/06 09:48:38;;;;;;;14.30;6.00;;;;;;;;;;6221043;28;20539;-62
2023/07/06 09:51:44;;;;;;;16.50;6.25;;;;;;;;;;6219211;28;20489;-62
2023/07/06 09:54:49;;;;;;;15.45;6.18;;;;;;;;;;6220655;28;20050;-61
2023/07/06 09:57:50;;;;;;;14.70;5.93;;;;;;;;;;6220737;28;20108;-61
2023/07/06 10:00:58;;;;;;;16.13;6.00;;;;;;;;;;6219191;28;20196;-62
2023/07/06 10:04:08;;;;;;;14.20;5.75;;;;;;;;;;6219770;28;20057;-61
2023/07/06 10:07:30;;;;;;;12.65;6.07;;;;;;;;;;6220708;28;20056;-62
2023/07/06 10:10:48;;;;;;;18.70;5.88;;;;;;;;;;6219861;28;20054;-62
2023/07/06 10:14:09;;;;;;;15.73;5.93;;;;;;;;;;6219153;28;20052;-62
2023/07/06 10:17:34;;;;;;;12.67;5.97;;;;;;;;;;6218880;28;20068;-62
2023/07/06 10:20:59;;;;;;;16.15;6.60;;;;;;;;;;6220093;28;20054;-62
2023/07/06 10:24:12;;;;;;;18.30;6.32;;;;;;;;;;6209279;28;20041;-62
2023/07/06 10:27:21;;;;;;;16.08;6.30;;;;;;;;;;6219492;28;20133;-62
2023/07/06 10:30:28;;;;;;;13.40;5.80;;;;;;;;;;6218524;28;20078;-61
2023/07/06 10:33:56;;;;;;;13.88;6.75;;;;;;;;;;6219809;28;20409;-61
2023/07/06 10:36:57;;;;;;;15.40;6.20;;;;;;;;;;6219617;28;20073;-62
2023/07/06 10:40:11;;;;;;;16.45;6.60;;;;;;;;;;6219108;28;20054;-62
2023/07/06 10:43:14;;;;;;;12.65;6.03;;;;;;;;;;6218210;28;20403;-61
2023/07/06 10:46:36;;;;;;;14.73;6.47;;;;;;;;;;6219412;28;20065;-62
2023/07/06 10:50:19;;;;;;;18.13;6.87;;;;;;;;;;6219241;28;20544;-61
2023/07/06 10:53:34;;;;;;;15.57;7.35;;;;;;;;;;6207155;28;20203;-61
2023/07/06 10:56:40;;;;;;;18.08;7.50;;;;;;;;;;6200099;28;20056;-61
2023/07/06 10:59:47;;;;;;;18.60;7.78;;;;;;;;;;6219059;28;20516;-61
2023/07/06 11:02:54;;;;;;;16.58;6.72;;;;;;;;;;6219545;28;20049;-61
2023/07/06 11:06:05;;;;;;;19.33;7.47;;;;;;;;;;6218703;28;20045;-61
2023/07/06 11:09:08;;;;;;;15.15;6.47;;;;;;;;;;6217595;28;20631;-61
2023/07/06 11:12:18;;;;;;;17.05;6.55;;;;;;;;;;6218737;28;20065;-61
2023/07/06 11:15:35;;;;;;;13.77;6.60;;;;;;;;;;6218610;28;20509;-61
2023/07/06 11:18:48;;;;;;;12.43;6.85;;;;;;;;;;6217746;28;20524;-61
2023/07/06 11:21:53;;;;;;;16.00;8.05;;;;;;;;;;6217717;28;20038;-61
2023/07/06 11:25:03;;;;;;;16.17;7.68;;;;;;;;;;6218546;28;20465;-61
2023/07/06 11:28:09;;;;;;;16.45;7.25;;;;;;;;;;6218661;28;20050;-61
2023/07/06 11:31:33;;;;;;;18.40;7.95;;;;;;;;;;6216877;28;20129;-61
2023/07/06 11:34:45;;;;;;;20.13;8.85;;;;;;;;;;6216929;28;20092;-61
2023/07/06 11:38:14;;;;;;;18.48;8.95;;;;;;;;;;6218206;28;20072;-61
2023/07/06 11:41:25;;;;;;;19.65;8.82;;;;;;;;;;6218305;28;20053;-61
2023/07/06 11:44:48;;;;;;;21.90;10.05;;;;;;;;;;6217168;28;20060;-61
2023/07/06 11:48:40;;;;;;;21.45;9.68;;;;;;;;;;6217394;28;20046;-61
2023/07/06 11:51:41;;;;;;;;;;;;;;;;;;6205958;28;20132;-61
2023/07/06 11:54:54;;;;;;;19.98;8.55;;;;;;;;;;6218098;28;19967;-61
2023/07/06 11:58:05;;;;;;;27.05;9.70;;;;;;;;;;6217857;28;20077;-61
2023/07/06 12:01:20;;;;;;;21.90;8.43;;;;;;;;;;6216400;28;20049;-61
2023/07/06 12:04:26;;;;;;;17.52;7.97;;;;;;;;;;6217712;28;20050;-61
2023/07/06 12:07:30;;;;;;;20.90;7.53;;;;;;;;;;6218055;28;20058;-61
2023/07/06 12:10:34;;;;;;;16.15;8.00;;;;;;;;;;6217424;28;20056;-61
2023/07/06 12:13:48;;;;;;;17.88;8.15;;;;;;;;;;6216983;28;20049;-61
2023/07/06 12:16:51;;;;;;;18.45;8.38;;;;;;;;;;6217723;28;20046;-61
2023/07/06 12:19:58;;;;;;;18.70;8.30;;;;;;;;;;6217927;28;20085;-61
2023/07/06 12:22:59;;;;;;;18.17;8.27;;;;;;;;;;6216029;28;20413;-61
2023/07/06 12:26:00;;;;;;;21.23;8.10;;;;;;;;;;6217719;28;20046;-61
2023/07/06 12:29:02;;;;;;;26.33;8.67;;;;;;;;;;6217552;28;20076;-61
2023/07/06 12:32:07;;;;;;;21.13;7.72;;;;;;;;;;6216695;28;20812;-61
2023/07/06 12:35:12;;;;;;;18.52;8.02;;;;;;;;;;6216473;28;20390;-61
2023/07/06 12:38:19;;;;;;;19.45;8.05;;;;;;;;;;6217549;28;20496;-61
2023/07/06 12:41:20;;;;;;;15.80;8.15;;;;;;;;;;6217758;28;20451;-61
2023/07/06 12:44:24;;;;;;;16.37;8.07;;;;;;;;;;6215966;28;20050;-61
2023/07/06 12:47:37;;;;;;;20.17;8.63;;;;;;;;;;6220816;28;20145;-61
2023/07/06 12:50:41;;;;;;;21.50;8.48;;;;;;;;;;6222208;28;20046;-61
2023/07/06 12:53:42;;;;;;;19.58;9.02;;;;;;;;;;6221420;28;20489;-61
2023/07/06 12:56:44;;;;;;;21.73;9.73;;;;;;;;;;6221187;28;20049;-61
2023/07/06 12:59:53;;;;;;;21.77;9.02;;;;;;;;;;6221889;28;20049;-61
2023/07/06 13:02:56;;;;;;;23.25;9.65;;;;;;;;;;6222011;28;20103;-61
2023/07/06 13:05:57;;;;;;;20.13;8.73;;;;;;;;;;6220171;28;20050;-61
2023/07/06 13:09:02;;;;;;;28.80;10.88;;;;;;;;;;6221715;28;20053;-61
2023/07/06 13:12:09;;;;;;;22.85;9.80;;;;;;;;;;6221845;28;20520;-61
2023/07/06 13:15:23;;;;;;;26.42;10.93;;;;;;;;;;6220700;28;20494;-61
2023/07/06 13:18:25;;;;;;;28.20;10.63;;;;;;;;;;6220482;28;20121;-61
2023/07/06 13:21:27;;;;;;;26.85;10.18;;;;;;;;;;6221692;28;20776;-62
2023/07/06 13:24:28;;;;;;;23.30;10.50;;;;;;;;;;6221389;28;20452;-61
2023/07/06 13:27:29;;;;;;;22.43;9.27;;;;;;;;;;6220104;28;20046;-61
2023/07/06 13:30:31;;;;;;;28.73;10.50;;;;;;;;;;6221524;28;20394;-61
2023/07/06 13:33:31;;;;;;;26.83;10.93;;;;;;;;;;6221260;28;20045;-61
2023/07/06 13:36:32;;;;;;;22.53;10.50;;;;;;;;;;6219748;28;20428;-61
2023/07/06 13:39:33;;;;;;;24.40;10.13;;;;;;;;;;6220779;28;20049;-61
2023/07/06 13:42:33;;;;;;;27.57;9.93;;;;;;;;;;6220909;28;20049;-61
2023/07/06 13:45:39;;;;;;;20.80;9.87;;;;;;;;;;6220364;28;20046;-61
2023/07/06 13:48:41;;;;;;;24.75;9.27;;;;;;;;;;6219766;28;20050;-61
2023/07/06 13:51:42;;;;;;;22.45;10.07;;;;;;;;;;6220772;28;20046;-61
2023/07/06 13:54:43;;;;;;;;;;;;;;;;;;6221535;28;20381;-61
2023/07/06 13:57:45;;;;;;;28.33;10.83;;;;;;;;;;6218360;28;19928;-61
2023/07/06 14:00:46;;;;;;;28.10;10.23;;;;;;;;;;6220423;28;20042;-61
2023/07/06 14:03:47;;;;;;;26.27;11.07;;;;;;;;;;6220467;28;20723;-61
2023/07/06 14:06:48;;;;;;;26.80;10.52;;;;;;;;;;6219529;28;20346;-61
2023/07/06 14:09:48;;;;;;;24.27;10.00;;;;;;;;;;6219866;28;20436;-61
2023/07/06 14:12:52;;;;;;;29.73;10.67;;;;;;;;;;6220522;28;20053;-61
2023/07/06 14:15:53;;;;;;;27.23;9.80;;;;;;;;;;6219679;28;20056;-61
2023/07/06 14:18:54;;;;;;;;;;;;;;;;;;6219577;28;20092;-61
2023/07/06 14:21:54;;;;;;;20.37;9.20;;;;;;;;;;6219962;28;19929;-61
2023/07/06 14:24:55;;;;;;;25.83;10.97;;;;;;;;;;6220339;28;20188;-61
2023/07/06 14:27:56;;;;;;;21.37;9.93;;;;;;;;;;6218388;28;20287;-61
2023/07/06 14:31:02;;;;;;;25.55;10.70;;;;;;;;;;6219761;28;20058;-61
2023/07/06 14:34:03;;;;;;;20.70;9.80;;;;;;;;;;6219884;28;20060;-61
2023/07/06 14:37:05;;;;;;;27.83;11.03;;;;;;;;;;6218414;28;20057;-61
2023/07/06 14:40:10;;;;;;;25.85;10.90;;;;;;;;;;6219201;28;20315;-61
2023/07/06 14:43:10;;;;;;;19.65;8.80;;;;;;;;;;6219973;28;20057;-61
2023/07/06 14:46:11;;;;;;;21.93;9.20;;;;;;;;;;6219269;28;20104;-61
2023/07/06 14:49:12;;;;;;;21.23;9.40;;;;;;;;;;6218072;28;20046;-61
2023/07/06 14:52:12;;;;;;;23.87;10.37;;;;;;;;;;6219259;28;20045;-61
2023/07/06 14:55:14;;;;;;;19.87;9.20;;;;;;;;;;6219137;28;20307;-61
2023/07/06 14:58:14;;;;;;;23.08;9.35;;;;;;;;;;6217824;28;20493;-61
2023/07/06 15:01:15;;;;;;;23.70;9.52;;;;;;;;;;6219268;28;20049;-61
2023/07/06 15:04:16;;;;;;;22.02;9.52;;;;;;;;;;6219085;28;20058;-61
2023/07/06 15:07:16;;;;;;;24.43;9.80;;;;;;;;;;6218008;28;20077;-61
2023/07/06 15:10:17;;;;;;;21.63;9.93;;;;;;;;;;6218348;28;20405;-61
2023/07/06 15:13:18;;;;;;;24.80;9.57;;;;;;;;;;6219093;28;20512;-61
2023/07/06 15:16:18;;;;;;;26.03;9.63;;;;;;;;;;6218438;28;20060;-61
2023/07/06 15:19:19;;;;;;;24.80;9.30;;;;;;;;;;6217812;28;20068;-61
2023/07/06 15:22:20;;;;;;;24.13;9.53;;;;;;;;;;6218607;28;20440;-61
2023/07/06 15:25:21;;;;;;;21.50;9.50;;;;;;;;;;6218560;28;20053;-61
2023/07/06 15:28:21;;;;;;;23.50;9.67;;;;;;;;;;6216999;28;20299;-61
2023/07/06 15:31:25;;;;;;;22.77;9.95;;;;;;;;;;6218472;28;20046;-61
2023/07/06 15:34:25;;;;;;;26.25;10.52;;;;;;;;;;6218563;28;20084;-60
2023/07/06 15:37:26;;;;;;;21.67;9.00;;;;;;;;;;6217220;28;20053;-61
2023/07/06 15:40:27;;;;;;;26.53;10.03;;;;;;;;;;6218001;28;20308;-61
2023/07/06 15:43:28;;;;;;;23.08;9.45;;;;;;;;;;6218234;28;20074;-61
2023/07/06 15:46:32;;;;;;;23.95;9.55;;;;;;;;;;6218518;28;20065;-61
2023/07/06 15:49:33;;;;;;;23.38;9.38;;;;;;;;;;6217016;28;20046;-61
2023/07/06 15:52:33;;;;;;;20.17;9.27;;;;;;;;;;6216990;28;20056;-61
2023/07/06 15:55:35;;;;;;;21.15;8.90;;;;;;;;;;6218455;28;20082;-61
2023/07/06 15:58:36;;;;;;;22.33;9.35;;;;;;;;;;6216322;28;20049;-61
2023/07/06 16:01:37;;;;;;;19.27;9.15;;;;;;;;;;6217820;28;20517;-61
2023/07/06 16:04:38;;;;;;;21.85;8.93;;;;;;;;;;6217763;28;20058;-61
2023/07/06 16:07:39;;;;;;;23.25;9.43;;;;;;;;;;6216668;28;20095;-61
2023/07/06 16:10:40;;;;;;;24.37;9.67;;;;;;;;;;6217687;28;20050;-61
2023/07/06 16:13:41;;;;;;;25.08;9.90;;;;;;;;;;6218119;28;20050;-61
2023/07/06 16:16:41;;;;;;;25.43;9.60;;;;;;;;;;6217460;28;20091;-61
2023/07/06 16:19:42;;;;;;;20.55;8.90;;;;;;;;;;6216567;28;20053;-61
2023/07/06 16:22:42;;;;;;;18.93;8.37;;;;;;;;;;6221908;28;20069;-61
2023/07/06 16:25:43;;;;;;;21.70;9.07;;;;;;;;;;6222543;28;20515;-61
2023/07/06 16:28:47;;;;;;;25.33;8.90;;;;;;;;;;6221302;28;20279;-61
2023/07/06 16:31:48;;;;;;;21.23;9.23;;;;;;;;;;6222593;28;20150;-61
2023/07/06 16:34:48;;;;;;;20.77;8.97;;;;;;;;;;6222724;28;20111;-62
2023/07/06 16:37:49;;;;;;;18.10;8.02;;;;;;;;;;6221652;28;20054;-62
2023/07/06 16:40:50;;;;;;;20.95;8.45;;;;;;;;;;6221975;28;20056;-61
2023/07/06 16:43:52;;;;;;;17.45;7.70;;;;;;;;;;6222526;28;20053;-61
2023/07/06 16:46:53;;;;;;;19.42;8.18;;;;;;;;;;6222303;28;20062;-61
2023/07/06 16:49:55;;;;;;;17.98;7.90;;;;;;;;;;6220967;28;20581;-61
2023/07/06 16:52:56;;;;;;;18.10;8.10;;;;;;;;;;6222021;28;20053;-62
2023/07/06 16:55:57;;;;;;;20.90;8.17;;;;;;;;;;6221929;28;20049;-61
2023/07/06 16:58:57;;;;;;;18.23;7.97;;;;;;;;;;6220384;28;20303;-62
2023/07/06 17:01:58;;;;;;;19.75;8.18;;;;;;;;;;6222263;28;20052;-61
2023/07/06 17:04:58;;;;;;;18.20;7.83;;;;;;;;;;6221653;28;20045;-61
2023/07/06 17:07:59;;;;;;;17.67;7.55;;;;;;;;;;6220694;28;20061;-62
2023/07/06 17:11:08;;;;;;;21.63;8.83;;;;;;;;;;6221723;28;20088;-62
2023/07/06 17:14:09;;;;;;;16.77;7.93;;;;;;;;;;6221636;28;20553;-61
2023/07/06 17:17:10;;;;;;;17.27;7.38;;;;;;;;;;6221267;28;20049;-62
2023/07/06 17:20:12;;;;;;;16.42;7.88;;;;;;;;;;6220269;28;20058;-61
2023/07/06 17:23:12;;;;;;;17.60;8.07;;;;;;;;;;6221521;28;20050;-61
2023/07/06 17:26:13;;;;;;;17.63;7.45;;;;;;;;;;6221482;28;20046;-61
2023/07/06 17:29:14;;;;;;;17.73;8.13;;;;;;;;;;6219886;28;20046;-61
2023/07/06 17:32:14;;;;;;;14.50;7.57;;;;;;;;;;6220272;28;20350;-61
2023/07/06 17:35:15;;;;;;;17.63;7.93;;;;;;;;;;6220972;28;20481;-61
2023/07/06 17:38:16;;;;;;;15.73;7.50;;;;;;;;;;6220184;28;20486;-61
2023/07/06 17:41:16;;;;;;;15.50;7.77;;;;;;;;;;6220379;28;20053;-61
2023/07/06 17:44:18;;;;;;;17.50;8.03;;;;;;;;;;6220962;28;20049;-61
2023/07/06 17:47:18;;;;;;;17.95;8.18;;;;;;;;;;6220340;28;20291;-61
2023/07/06 17:50:19;;;;;;;16.60;8.03;;;;;;;;;;6219909;28;20129;-61
2023/07/06 17:53:20;;;;;;;19.17;8.03;;;;;;;;;;6220849;28;20049;-61
2023/07/06 17:56:21;;;;;;;20.67;8.52;;;;;;;;;;6220652;28;20485;-61
2023/07/06 17:59:22;;;;;;;19.27;8.23;;;;;;;;;;6219127;28;20084;-61
2023/07/06 18:02:22;;;;;;;18.17;7.72;;;;;;;;;;6220442;28;20116;-61
2023/07/06 18:05:23;;;;;;;16.00;7.47;;;;;;;;;;6220268;28;20482;-61